sensor_id;sensor_type;location;lat;lon;timestamp;P1;durP1;ratioP1;P2;durP2;ratioP2
69906;SDS011;57190;47.918;8.112;2023-01-23T00:01:02;4.20;;;3.90;;
69906;SDS011;57190;47.918;8.112;2023-01-23T00:03:30;3.70;;;3.40;;
69906;SDS011;57190;47.918;8.112;2023-01-23T00:08:23;3.93;;;3.60;;
69906;SDS011;57190;47.918;8.112;2023-01-23T00:10:49;3.90;;;3.60;;
69906;SDS011;57190;47.918;8.112;2023-01-23T00:13:14;3.87;;;3.57;;
69906;SDS011;57190;47.918;8.112;2023-01-23T00:15:41;4.07;;;3.67;;
69906;SDS011;57190;47.918;8.112;2023-01-23T00:18:07;4.13;;;3.83;;
69906;SDS011;57190;47.918;8.112;2023-01-23T00:20:33;3.60;;;3.30;;
69906;SDS011;57190;47.918;8.112;2023-01-23T00:23:00;4.10;;;3.80;;
69906;SDS011;57190;47.918;8.112;2023-01-23T00:25:26;3.93;;;3.63;;
69906;SDS011;57190;47.918;8.112;2023-01-23T00:27:52;3.80;;;3.50;;
69906;SDS011;57190;47.918;8.112;2023-01-23T00:30:17;3.63;;;3.37;;
69906;SDS011;57190;47.918;8.112;2023-01-23T00:32:43;3.77;;;3.47;;
69906;SDS011;57190;47.918;8.112;2023-01-23T00:35:08;4.13;;;3.83;;
69906;SDS011;57190;47.918;8.112;2023-01-23T00:37:33;4.10;;;3.80;;
69906;SDS011;57190;47.918;8.112;2023-01-23T00:39:59;3.83;;;3.53;;
69906;SDS011;57190;47.918;8.112;2023-01-23T00:42:24;3.70;;;3.40;;
69906;SDS011;57190;47.918;8.112;2023-01-23T00:44:50;4.37;;;4.03;;
69906;SDS011;57190;47.918;8.112;2023-01-23T00:47:15;4.00;;;3.70;;
69906;SDS011;57190;47.918;8.112;2023-01-23T00:49:41;4.07;;;3.77;;
69906;SDS011;57190;47.918;8.112;2023-01-23T00:52:06;4.10;;;3.80;;
69906;SDS011;57190;47.918;8.112;2023-01-23T00:54:32;4.03;;;3.73;;
69906;SDS011;57190;47.918;8.112;2023-01-23T00:56:57;3.73;;;3.43;;
69906;SDS011;57190;47.918;8.112;2023-01-23T00:59:23;3.97;;;3.67;;
69906;SDS011;57190;47.918;8.112;2023-01-23T01:01:48;4.33;;;4.03;;
69906;SDS011;57190;47.918;8.112;2023-01-23T01:04:14;4.07;;;3.77;;
69906;SDS011;57190;47.918;8.112;2023-01-23T01:06:40;4.70;;;4.30;;
69906;SDS011;57190;47.918;8.112;2023-01-23T01:09:05;5.37;;;4.87;;
69906;SDS011;57190;47.918;8.112;2023-01-23T01:11:31;4.80;;;4.40;;
69906;SDS011;57190;47.918;8.112;2023-01-23T01:13:56;4.40;;;4.10;;
69906;SDS011;57190;47.918;8.112;2023-01-23T01:16:22;4.83;;;4.43;;
69906;SDS011;57190;47.918;8.112;2023-01-23T01:18:48;4.30;;;4.00;;
69906;SDS011;57190;47.918;8.112;2023-01-23T01:21:15;5.00;;;4.60;;
69906;SDS011;57190;47.918;8.112;2023-01-23T01:23:41;4.57;;;4.17;;
69906;SDS011;57190;47.918;8.112;2023-01-23T01:26:07;4.27;;;3.87;;
69906;SDS011;57190;47.918;8.112;2023-01-23T01:28:34;4.00;;;3.70;;
69906;SDS011;57190;47.918;8.112;2023-01-23T01:31:05;3.97;;;3.67;;
69906;SDS011;57190;47.918;8.112;2023-01-23T01:33:32;4.20;;;3.90;;
69906;SDS011;57190;47.918;8.112;2023-01-23T01:35:59;4.77;;;4.37;;
69906;SDS011;57190;47.918;8.112;2023-01-23T01:38:25;4.97;;;4.57;;
69906;SDS011;57190;47.918;8.112;2023-01-23T01:40:52;4.20;;;3.90;;
69906;SDS011;57190;47.918;8.112;2023-01-23T01:43:19;4.17;;;3.87;;
69906;SDS011;57190;47.918;8.112;2023-01-23T01:51:47;4.37;;;4.07;;
69906;SDS011;57190;47.918;8.112;2023-01-23T01:57:00;4.20;;;3.90;;
69906;SDS011;57190;47.918;8.112;2023-01-23T01:59:33;3.90;;;3.60;;
69906;SDS011;57190;47.918;8.112;2023-01-23T02:02:05;4.07;;;3.77;;
69906;SDS011;57190;47.918;8.112;2023-01-23T02:04:39;3.77;;;3.50;;
69906;SDS011;57190;47.918;8.112;2023-01-23T02:07:09;3.97;;;3.67;;
69906;SDS011;57190;47.918;8.112;2023-01-23T02:09:41;4.40;;;4.10;;
69906;SDS011;57190;47.918;8.112;2023-01-23T02:12:07;4.00;;;3.70;;
69906;SDS011;57190;47.918;8.112;2023-01-23T02:14:32;3.70;;;3.43;;
69906;SDS011;57190;47.918;8.112;2023-01-23T02:16:58;4.60;;;4.30;;
69906;SDS011;57190;47.918;8.112;2023-01-23T02:22:22;4.60;;;4.20;;
69906;SDS011;57190;47.918;8.112;2023-01-23T02:28:02;4.27;;;3.93;;
69906;SDS011;57190;47.918;8.112;2023-01-23T02:30:28;4.50;;;4.10;;
69906;SDS011;57190;47.918;8.112;2023-01-23T02:32:53;4.37;;;4.07;;
69906;SDS011;57190;47.918;8.112;2023-01-23T02:35:30;4.70;;;4.30;;
69906;SDS011;57190;47.918;8.112;2023-01-23T02:37:57;4.53;;;4.23;;
69906;SDS011;57190;47.918;8.112;2023-01-23T02:40:34;3.87;;;3.57;;
69906;SDS011;57190;47.918;8.112;2023-01-23T02:43:05;4.57;;;4.17;;
69906;SDS011;57190;47.918;8.112;2023-01-23T02:45:33;4.30;;;3.97;;
69906;SDS011;57190;47.918;8.112;2023-01-23T02:47:59;4.13;;;3.83;;
69906;SDS011;57190;47.918;8.112;2023-01-23T02:50:26;4.00;;;3.70;;
69906;SDS011;57190;47.918;8.112;2023-01-23T02:52:52;4.47;;;4.07;;
69906;SDS011;57190;47.918;8.112;2023-01-23T02:55:21;4.53;;;4.23;;
69906;SDS011;57190;47.918;8.112;2023-01-23T02:57:47;4.77;;;4.37;;
69906;SDS011;57190;47.918;8.112;2023-01-23T03:00:13;4.47;;;4.17;;
69906;SDS011;57190;47.918;8.112;2023-01-23T03:02:45;4.63;;;4.27;;
69906;SDS011;57190;47.918;8.112;2023-01-23T03:05:12;4.57;;;4.17;;
69906;SDS011;57190;47.918;8.112;2023-01-23T03:07:38;4.77;;;4.37;;
69906;SDS011;57190;47.918;8.112;2023-01-23T03:10:04;4.60;;;4.23;;
69906;SDS011;57190;47.918;8.112;2023-01-23T03:12:31;3.97;;;3.67;;
69906;SDS011;57190;47.918;8.112;2023-01-23T03:14:57;4.50;;;4.10;;
69906;SDS011;57190;47.918;8.112;2023-01-23T03:17:23;4.43;;;4.00;;
69906;SDS011;57190;47.918;8.112;2023-01-23T03:19:49;4.60;;;4.27;;
69906;SDS011;57190;47.918;8.112;2023-01-23T03:22:15;4.40;;;4.10;;
69906;SDS011;57190;47.918;8.112;2023-01-23T03:24:40;4.03;;;3.73;;
69906;SDS011;57190;47.918;8.112;2023-01-23T03:27:06;3.40;;;3.20;;
69906;SDS011;57190;47.918;8.112;2023-01-23T03:29:31;2.87;;;2.67;;
69906;SDS011;57190;47.918;8.112;2023-01-23T03:32:16;3.50;;;3.30;;
69906;SDS011;57190;47.918;8.112;2023-01-23T03:34:42;3.53;;;3.23;;
69906;SDS011;57190;47.918;8.112;2023-01-23T03:37:08;3.63;;;3.33;;
69906;SDS011;57190;47.918;8.112;2023-01-23T03:39:35;3.20;;;3.00;;
69906;SDS011;57190;47.918;8.112;2023-01-23T03:42:19;3.73;;;3.43;;
69906;SDS011;57190;47.918;8.112;2023-01-23T03:44:45;3.63;;;3.33;;
69906;SDS011;57190;47.918;8.112;2023-01-23T03:47:10;3.60;;;3.40;;
69906;SDS011;57190;47.918;8.112;2023-01-23T03:49:36;3.20;;;3.00;;
69906;SDS011;57190;47.918;8.112;2023-01-23T03:52:01;3.63;;;3.37;;
69906;SDS011;57190;47.918;8.112;2023-01-23T03:54:27;3.83;;;3.50;;
69906;SDS011;57190;47.918;8.112;2023-01-23T03:56:53;4.03;;;3.73;;
69906;SDS011;57190;47.918;8.112;2023-01-23T03:59:19;3.80;;;3.50;;
69906;SDS011;57190;47.918;8.112;2023-01-23T04:01:44;3.70;;;3.40;;
69906;SDS011;57190;47.918;8.112;2023-01-23T04:04:11;3.57;;;3.27;;
69906;SDS011;57190;47.918;8.112;2023-01-23T04:06:37;3.87;;;3.57;;
69906;SDS011;57190;47.918;8.112;2023-01-23T04:09:03;3.57;;;3.27;;
69906;SDS011;57190;47.918;8.112;2023-01-23T04:11:28;3.20;;;3.00;;
69906;SDS011;57190;47.918;8.112;2023-01-23T04:13:54;3.50;;;3.20;;
69906;SDS011;57190;47.918;8.112;2023-01-23T04:16:19;3.40;;;3.20;;
69906;SDS011;57190;47.918;8.112;2023-01-23T04:18:49;3.73;;;3.43;;
69906;SDS011;57190;47.918;8.112;2023-01-23T04:21:15;3.70;;;3.40;;
69906;SDS011;57190;47.918;8.112;2023-01-23T04:23:41;3.83;;;3.53;;
69906;SDS011;57190;47.918;8.112;2023-01-23T04:26:07;4.00;;;3.70;;
69906;SDS011;57190;47.918;8.112;2023-01-23T04:28:32;4.00;;;3.70;;
69906;SDS011;57190;47.918;8.112;2023-01-23T04:30:58;3.97;;;3.67;;
69906;SDS011;57190;47.918;8.112;2023-01-23T04:33:24;4.30;;;4.00;;
69906;SDS011;57190;47.918;8.112;2023-01-23T04:35:53;4.10;;;3.13;;
69906;SDS011;57190;47.918;8.112;2023-01-23T04:38:23;3.37;;;3.07;;
69906;SDS011;57190;47.918;8.112;2023-01-23T04:40:50;3.87;;;3.57;;
69906;SDS011;57190;47.918;8.112;2023-01-23T04:43:16;3.30;;;3.10;;
69906;SDS011;57190;47.918;8.112;2023-01-23T04:45:42;3.40;;;3.10;;
69906;SDS011;57190;47.918;8.112;2023-01-23T04:48:08;3.43;;;3.20;;
69906;SDS011;57190;47.918;8.112;2023-01-23T04:50:35;3.07;;;2.87;;
69906;SDS011;57190;47.918;8.112;2023-01-23T04:53:01;3.67;;;3.37;;
69906;SDS011;57190;47.918;8.112;2023-01-23T04:55:26;3.17;;;2.97;;
69906;SDS011;57190;47.918;8.112;2023-01-23T04:57:52;4.07;;;3.77;;
69906;SDS011;57190;47.918;8.112;2023-01-23T05:00:18;3.40;;;3.10;;
69906;SDS011;57190;47.918;8.112;2023-01-23T05:02:46;3.67;;;3.37;;
69906;SDS011;57190;47.918;8.112;2023-01-23T05:05:12;4.13;;;3.83;;
69906;SDS011;57190;47.918;8.112;2023-01-23T05:07:38;4.00;;;3.67;;
69906;SDS011;57190;47.918;8.112;2023-01-23T05:10:04;3.90;;;3.50;;
69906;SDS011;57190;47.918;8.112;2023-01-23T05:12:30;3.80;;;3.50;;
69906;SDS011;57190;47.918;8.112;2023-01-23T05:14:56;3.70;;;3.40;;
69906;SDS011;57190;47.918;8.112;2023-01-23T05:17:22;3.73;;;3.43;;
69906;SDS011;57190;47.918;8.112;2023-01-23T05:19:47;3.27;;;3.07;;
69906;SDS011;57190;47.918;8.112;2023-01-23T05:22:13;3.63;;;3.33;;
69906;SDS011;57190;47.918;8.112;2023-01-23T05:24:38;3.30;;;3.10;;
69906;SDS011;57190;47.918;8.112;2023-01-23T05:27:04;3.90;;;3.50;;
69906;SDS011;57190;47.918;8.112;2023-01-23T05:29:29;4.10;;;3.80;;
69906;SDS011;57190;47.918;8.112;2023-01-23T05:31:55;3.50;;;3.23;;
69906;SDS011;57190;47.918;8.112;2023-01-23T05:34:21;3.30;;;3.03;;
69906;SDS011;57190;47.918;8.112;2023-01-23T05:36:46;3.60;;;3.30;;
69906;SDS011;57190;47.918;8.112;2023-01-23T05:39:12;3.30;;;3.10;;
69906;SDS011;57190;47.918;8.112;2023-01-23T05:41:37;3.50;;;3.20;;
69906;SDS011;57190;47.918;8.112;2023-01-23T05:44:03;3.53;;;3.23;;
69906;SDS011;57190;47.918;8.112;2023-01-23T05:46:28;3.87;;;3.57;;
69906;SDS011;57190;47.918;8.112;2023-01-23T05:48:54;3.53;;;3.30;;
69906;SDS011;57190;47.918;8.112;2023-01-23T05:51:20;3.70;;;3.40;;
69906;SDS011;57190;47.918;8.112;2023-01-23T05:53:47;3.23;;;3.00;;
69906;SDS011;57190;47.918;8.112;2023-01-23T05:56:13;3.03;;;2.83;;
69906;SDS011;57190;47.918;8.112;2023-01-23T05:58:39;3.10;;;2.90;;
69906;SDS011;57190;47.918;8.112;2023-01-23T06:01:04;3.30;;;3.00;;
69906;SDS011;57190;47.918;8.112;2023-01-23T06:03:30;2.90;;;2.70;;
69906;SDS011;57190;47.918;8.112;2023-01-23T06:05:56;3.20;;;3.00;;
69906;SDS011;57190;47.918;8.112;2023-01-23T06:08:21;3.00;;;2.80;;
69906;SDS011;57190;47.918;8.112;2023-01-23T06:10:47;3.63;;;3.33;;
69906;SDS011;57190;47.918;8.112;2023-01-23T06:13:12;3.20;;;2.90;;
69906;SDS011;57190;47.918;8.112;2023-01-23T06:15:38;2.70;;;2.50;;
69906;SDS011;57190;47.918;8.112;2023-01-23T06:18:04;3.30;;;3.10;;
69906;SDS011;57190;47.918;8.112;2023-01-23T06:20:29;3.17;;;2.87;;
69906;SDS011;57190;47.918;8.112;2023-01-23T06:22:55;3.10;;;2.87;;
69906;SDS011;57190;47.918;8.112;2023-01-23T06:25:21;3.07;;;2.87;;
69906;SDS011;57190;47.918;8.112;2023-01-23T06:27:47;2.93;;;2.73;;
69906;SDS011;57190;47.918;8.112;2023-01-23T06:30:12;4.07;;;3.67;;
69906;SDS011;57190;47.918;8.112;2023-01-23T06:32:38;4.10;;;3.70;;
69906;SDS011;57190;47.918;8.112;2023-01-23T06:35:05;2.77;;;2.57;;
69906;SDS011;57190;47.918;8.112;2023-01-23T06:37:31;3.43;;;3.20;;
69906;SDS011;57190;47.918;8.112;2023-01-23T06:39:56;3.30;;;3.10;;
69906;SDS011;57190;47.918;8.112;2023-01-23T06:42:22;3.53;;;3.23;;
69906;SDS011;57190;47.918;8.112;2023-01-23T06:44:47;3.80;;;3.50;;
69906;SDS011;57190;47.918;8.112;2023-01-23T06:47:13;3.70;;;3.40;;
69906;SDS011;57190;47.918;8.112;2023-01-23T06:49:40;3.80;;;3.43;;
69906;SDS011;57190;47.918;8.112;2023-01-23T06:52:05;3.70;;;3.40;;
69906;SDS011;57190;47.918;8.112;2023-01-23T06:54:31;3.80;;;3.50;;
69906;SDS011;57190;47.918;8.112;2023-01-23T06:56:56;3.90;;;3.60;;
69906;SDS011;57190;47.918;8.112;2023-01-23T06:59:22;4.07;;;3.77;;
69906;SDS011;57190;47.918;8.112;2023-01-23T07:01:48;4.20;;;3.90;;
69906;SDS011;57190;47.918;8.112;2023-01-23T07:04:13;3.93;;;3.63;;
69906;SDS011;57190;47.918;8.112;2023-01-23T07:06:39;3.60;;;3.30;;
69906;SDS011;57190;47.918;8.112;2023-01-23T07:09:04;3.80;;;3.50;;
69906;SDS011;57190;47.918;8.112;2023-01-23T07:11:30;4.20;;;3.90;;
69906;SDS011;57190;47.918;8.112;2023-01-23T07:13:55;4.13;;;3.77;;
69906;SDS011;57190;47.918;8.112;2023-01-23T07:16:21;4.23;;;3.93;;
69906;SDS011;57190;47.918;8.112;2023-01-23T07:18:47;3.90;;;3.60;;
69906;SDS011;57190;47.918;8.112;2023-01-23T07:21:12;4.60;;;4.30;;
69906;SDS011;57190;47.918;8.112;2023-01-23T07:23:38;4.07;;;3.43;;
69906;SDS011;57190;47.918;8.112;2023-01-23T07:26:04;4.03;;;3.73;;
69906;SDS011;57190;47.918;8.112;2023-01-23T07:28:34;3.67;;;3.37;;
69906;SDS011;57190;47.918;8.112;2023-01-23T07:31:01;3.70;;;3.40;;
69906;SDS011;57190;47.918;8.112;2023-01-23T07:33:27;3.53;;;3.23;;
69906;SDS011;57190;47.918;8.112;2023-01-23T07:35:53;3.23;;;2.97;;
69906;SDS011;57190;47.918;8.112;2023-01-23T07:38:19;3.70;;;3.40;;
69906;SDS011;57190;47.918;8.112;2023-01-23T07:40:45;3.23;;;2.57;;
69906;SDS011;57190;47.918;8.112;2023-01-23T07:43:10;3.17;;;2.87;;
69906;SDS011;57190;47.918;8.112;2023-01-23T07:45:36;3.10;;;2.80;;
69906;SDS011;57190;47.918;8.112;2023-01-23T07:48:02;3.20;;;3.00;;
69906;SDS011;57190;47.918;8.112;2023-01-23T07:50:28;3.17;;;2.97;;
69906;SDS011;57190;47.918;8.112;2023-01-23T07:52:54;3.37;;;3.10;;
69906;SDS011;57190;47.918;8.112;2023-01-23T07:55:19;2.70;;;2.50;;
69906;SDS011;57190;47.918;8.112;2023-01-23T07:57:45;2.97;;;2.77;;
69906;SDS011;57190;47.918;8.112;2023-01-23T08:00:11;3.03;;;2.83;;
69906;SDS011;57190;47.918;8.112;2023-01-23T08:02:37;3.50;;;3.23;;
69906;SDS011;57190;47.918;8.112;2023-01-23T08:05:02;3.47;;;3.17;;
69906;SDS011;57190;47.918;8.112;2023-01-23T08:07:28;3.60;;;3.30;;
69906;SDS011;57190;47.918;8.112;2023-01-23T08:09:54;3.60;;;3.30;;
69906;SDS011;57190;47.918;8.112;2023-01-23T08:12:19;3.33;;;3.10;;
69906;SDS011;57190;47.918;8.112;2023-01-23T08:14:45;3.20;;;3.00;;
69906;SDS011;57190;47.918;8.112;2023-01-23T08:17:11;3.70;;;3.20;;
69906;SDS011;57190;47.918;8.112;2023-01-23T08:19:37;3.80;;;3.50;;
69906;SDS011;57190;47.918;8.112;2023-01-23T08:22:02;3.30;;;3.10;;
69906;SDS011;57190;47.918;8.112;2023-01-23T08:24:28;3.37;;;3.17;;
69906;SDS011;57190;47.918;8.112;2023-01-23T08:26:54;3.63;;;3.33;;
69906;SDS011;57190;47.918;8.112;2023-01-23T08:29:20;3.30;;;3.00;;
69906;SDS011;57190;47.918;8.112;2023-01-23T08:31:46;3.30;;;3.10;;
69906;SDS011;57190;47.918;8.112;2023-01-23T08:34:11;3.07;;;2.87;;
69906;SDS011;57190;47.918;8.112;2023-01-23T08:36:37;3.20;;;2.90;;
69906;SDS011;57190;47.918;8.112;2023-01-23T08:39:03;3.07;;;2.77;;
69906;SDS011;57190;47.918;8.112;2023-01-23T08:41:29;3.50;;;3.20;;
69906;SDS011;57190;47.918;8.112;2023-01-23T08:43:54;3.40;;;3.10;;
69906;SDS011;57190;47.918;8.112;2023-01-23T08:46:22;3.27;;;3.00;;
69906;SDS011;57190;47.918;8.112;2023-01-23T08:48:47;3.33;;;3.10;;
69906;SDS011;57190;47.918;8.112;2023-01-23T08:51:13;3.40;;;3.10;;
69906;SDS011;57190;47.918;8.112;2023-01-23T08:53:39;3.20;;;2.93;;
69906;SDS011;57190;47.918;8.112;2023-01-23T08:56:06;3.80;;;3.50;;
69906;SDS011;57190;47.918;8.112;2023-01-23T08:58:36;3.67;;;3.37;;
69906;SDS011;57190;47.918;8.112;2023-01-23T09:01:01;4.40;;;4.00;;
69906;SDS011;57190;47.918;8.112;2023-01-23T09:03:27;3.57;;;3.27;;
69906;SDS011;57190;47.918;8.112;2023-01-23T09:05:53;4.00;;;3.70;;
69906;SDS011;57190;47.918;8.112;2023-01-23T09:08:18;3.97;;;3.67;;
69906;SDS011;57190;47.918;8.112;2023-01-23T09:10:44;3.90;;;3.60;;
69906;SDS011;57190;47.918;8.112;2023-01-23T09:13:10;3.93;;;3.63;;
69906;SDS011;57190;47.918;8.112;2023-01-23T09:15:38;4.13;;;3.83;;
69906;SDS011;57190;47.918;8.112;2023-01-23T09:18:04;4.27;;;3.77;;
69906;SDS011;57190;47.918;8.112;2023-01-23T09:20:30;3.80;;;3.50;;
69906;SDS011;57190;47.918;8.112;2023-01-23T09:22:56;4.20;;;3.83;;
69906;SDS011;57190;47.918;8.112;2023-01-23T09:25:21;3.87;;;3.57;;
69906;SDS011;57190;47.918;8.112;2023-01-23T09:27:47;4.27;;;3.87;;
69906;SDS011;57190;47.918;8.112;2023-01-23T09:30:13;4.20;;;3.80;;
69906;SDS011;57190;47.918;8.112;2023-01-23T09:32:38;4.77;;;4.27;;
69906;SDS011;57190;47.918;8.112;2023-01-23T09:35:04;4.67;;;4.20;;
69906;SDS011;57190;47.918;8.112;2023-01-23T09:37:30;4.73;;;4.20;;
69906;SDS011;57190;47.918;8.112;2023-01-23T09:40:17;4.43;;;4.03;;
69906;SDS011;57190;47.918;8.112;2023-01-23T09:42:46;4.43;;;4.03;;
69906;SDS011;57190;47.918;8.112;2023-01-23T09:45:17;4.40;;;4.00;;
69906;SDS011;57190;47.918;8.112;2023-01-23T09:47:50;4.40;;;4.10;;
69906;SDS011;57190;47.918;8.112;2023-01-23T09:50:24;4.07;;;3.77;;
69906;SDS011;57190;47.918;8.112;2023-01-23T09:53:15;4.33;;;4.03;;
69906;SDS011;57190;47.918;8.112;2023-01-23T09:55:43;4.50;;;4.10;;
69906;SDS011;57190;47.918;8.112;2023-01-23T09:58:17;3.93;;;3.63;;
69906;SDS011;57190;47.918;8.112;2023-01-23T10:00:51;4.67;;;4.27;;
69906;SDS011;57190;47.918;8.112;2023-01-23T10:03:17;4.43;;;4.03;;
69906;SDS011;57190;47.918;8.112;2023-01-23T10:11:14;4.70;;;4.30;;
69906;SDS011;57190;47.918;8.112;2023-01-23T10:14:02;4.97;;;4.57;;
69906;SDS011;57190;47.918;8.112;2023-01-23T10:19:42;4.70;;;4.30;;
69906;SDS011;57190;47.918;8.112;2023-01-23T10:25:19;4.67;;;4.37;;
69906;SDS011;57190;47.918;8.112;2023-01-23T10:27:48;4.70;;;4.30;;
69906;SDS011;57190;47.918;8.112;2023-01-23T10:32:50;4.77;;;4.37;;
69906;SDS011;57190;47.918;8.112;2023-01-23T10:35:26;5.60;;;5.03;;
69906;SDS011;57190;47.918;8.112;2023-01-23T10:40:46;4.57;;;4.27;;
69906;SDS011;57190;47.918;8.112;2023-01-23T10:43:31;5.17;;;4.60;;
69906;SDS011;57190;47.918;8.112;2023-01-23T10:45:56;5.63;;;5.13;;
69906;SDS011;57190;47.918;8.112;2023-01-23T10:48:37;5.43;;;4.97;;
69906;SDS011;57190;47.918;8.112;2023-01-23T10:51:22;4.87;;;4.47;;
69906;SDS011;57190;47.918;8.112;2023-01-23T10:54:00;5.23;;;4.73;;
69906;SDS011;57190;47.918;8.112;2023-01-23T10:56:25;4.73;;;4.33;;
69906;SDS011;57190;47.918;8.112;2023-01-23T10:58:51;5.50;;;4.97;;
69906;SDS011;57190;47.918;8.112;2023-01-23T11:01:28;5.87;;;5.37;;
69906;SDS011;57190;47.918;8.112;2023-01-23T11:03:56;5.10;;;4.70;;
69906;SDS011;57190;47.918;8.112;2023-01-23T11:06:22;5.10;;;4.70;;
69906;SDS011;57190;47.918;8.112;2023-01-23T11:11:28;5.47;;;4.97;;
69906;SDS011;57190;47.918;8.112;2023-01-23T11:14:12;5.67;;;4.97;;
69906;SDS011;57190;47.918;8.112;2023-01-23T11:16:41;5.60;;;5.03;;
69906;SDS011;57190;47.918;8.112;2023-01-23T11:21:34;5.13;;;4.63;;
69906;SDS011;57190;47.918;8.112;2023-01-23T11:27:02;5.63;;;5.13;;
69906;SDS011;57190;47.918;8.112;2023-01-23T11:30:02;5.83;;;5.33;;
69906;SDS011;57190;47.918;8.112;2023-01-23T11:32:41;5.20;;;4.70;;
69906;SDS011;57190;47.918;8.112;2023-01-23T11:35:15;6.00;;;5.40;;
69906;SDS011;57190;47.918;8.112;2023-01-23T11:37:44;5.93;;;5.43;;
69906;SDS011;57190;47.918;8.112;2023-01-23T11:40:15;5.43;;;4.93;;
69906;SDS011;57190;47.918;8.112;2023-01-23T11:42:43;5.43;;;4.93;;
69906;SDS011;57190;47.918;8.112;2023-01-23T11:50:38;5.77;;;5.17;;
69906;SDS011;57190;47.918;8.112;2023-01-23T11:53:32;6.03;;;5.53;;
69906;SDS011;57190;47.918;8.112;2023-01-23T11:56:11;5.67;;;5.17;;
69906;SDS011;57190;47.918;8.112;2023-01-23T12:02:14;5.87;;;5.27;;
69906;SDS011;57190;47.918;8.112;2023-01-23T12:05:02;5.87;;;5.37;;
69906;SDS011;57190;47.918;8.112;2023-01-23T12:08:10;5.23;;;4.73;;
69906;SDS011;57190;47.918;8.112;2023-01-23T12:11:08;5.57;;;5.07;;
69906;SDS011;57190;47.918;8.112;2023-01-23T12:19:19;6.37;;;5.77;;
69906;SDS011;57190;47.918;8.112;2023-01-23T12:22:06;5.13;;;4.63;;
69906;SDS011;57190;47.918;8.112;2023-01-23T12:27:34;5.87;;;5.37;;
69906;SDS011;57190;47.918;8.112;2023-01-23T12:30:11;5.47;;;4.97;;
69906;SDS011;57190;47.918;8.112;2023-01-23T12:35:29;5.43;;;4.93;;
69906;SDS011;57190;47.918;8.112;2023-01-23T12:38:08;5.00;;;4.60;;
69906;SDS011;57190;47.918;8.112;2023-01-23T12:43:56;6.20;;;5.70;;
69906;SDS011;57190;47.918;8.112;2023-01-23T12:46:53;6.10;;;5.20;;
69906;SDS011;57190;47.918;8.112;2023-01-23T12:52:06;6.20;;;5.60;;
69906;SDS011;57190;47.918;8.112;2023-01-23T12:54:41;4.93;;;4.43;;
69906;SDS011;57190;47.918;8.112;2023-01-23T12:57:11;6.13;;;5.63;;
69906;SDS011;57190;47.918;8.112;2023-01-23T13:07:45;5.57;;;5.07;;
69906;SDS011;57190;47.918;8.112;2023-01-23T13:10:28;6.27;;;5.33;;
69906;SDS011;57190;47.918;8.112;2023-01-23T13:13:15;6.30;;;5.70;;
69906;SDS011;57190;47.918;8.112;2023-01-23T13:15:43;5.77;;;5.10;;
69906;SDS011;57190;47.918;8.112;2023-01-23T13:18:24;5.57;;;5.07;;
69906;SDS011;57190;47.918;8.112;2023-01-23T13:20:58;5.77;;;5.20;;
69906;SDS011;57190;47.918;8.112;2023-01-23T13:23:46;5.40;;;4.90;;
69906;SDS011;57190;47.918;8.112;2023-01-23T13:31:21;6.10;;;5.57;;
69906;SDS011;57190;47.918;8.112;2023-01-23T13:33:56;6.03;;;5.47;;
69906;SDS011;57190;47.918;8.112;2023-01-23T13:36:29;5.47;;;5.07;;
69906;SDS011;57190;47.918;8.112;2023-01-23T13:41:40;5.03;;;4.63;;
69906;SDS011;57190;47.918;8.112;2023-01-23T13:44:17;4.93;;;4.53;;
69906;SDS011;57190;47.918;8.112;2023-01-23T13:50:05;5.97;;;5.37;;
69906;SDS011;57190;47.918;8.112;2023-01-23T13:52:40;5.63;;;5.13;;
69906;SDS011;57190;47.918;8.112;2023-01-23T13:55:32;5.40;;;4.90;;
69906;SDS011;57190;47.918;8.112;2023-01-23T13:58:23;5.80;;;5.23;;
69906;SDS011;57190;47.918;8.112;2023-01-23T14:03:37;5.63;;;5.13;;
69906;SDS011;57190;47.918;8.112;2023-01-23T14:06:31;5.87;;;5.27;;
69906;SDS011;57190;47.918;8.112;2023-01-23T14:08:58;5.57;;;5.07;;
69906;SDS011;57190;47.918;8.112;2023-01-23T14:11:29;5.80;;;5.30;;
69906;SDS011;57190;47.918;8.112;2023-01-23T14:14:00;5.43;;;4.93;;
69906;SDS011;57190;47.918;8.112;2023-01-23T14:16:46;6.00;;;5.40;;
69906;SDS011;57190;47.918;8.112;2023-01-23T14:19:20;5.33;;;4.80;;
69906;SDS011;57190;47.918;8.112;2023-01-23T14:21:49;5.17;;;4.70;;
69906;SDS011;57190;47.918;8.112;2023-01-23T14:24:22;6.27;;;5.77;;
69906;SDS011;57190;47.918;8.112;2023-01-23T14:26:52;5.60;;;5.10;;
69906;SDS011;57190;47.918;8.112;2023-01-23T14:29:24;5.93;;;5.43;;
69906;SDS011;57190;47.918;8.112;2023-01-23T14:31:50;5.57;;;5.03;;
69906;SDS011;57190;47.918;8.112;2023-01-23T14:34:18;6.60;;;5.73;;
69906;SDS011;57190;47.918;8.112;2023-01-23T14:36:52;6.07;;;5.17;;
69906;SDS011;57190;47.918;8.112;2023-01-23T14:39:27;5.50;;;5.00;;
69906;SDS011;57190;47.918;8.112;2023-01-23T14:41:55;5.87;;;5.07;;
69906;SDS011;57190;47.918;8.112;2023-01-23T14:44:23;5.80;;;5.30;;
69906;SDS011;57190;47.918;8.112;2023-01-23T14:46:53;6.63;;;6.03;;
69906;SDS011;57190;47.918;8.112;2023-01-23T14:49:39;5.97;;;5.47;;
69906;SDS011;57190;47.918;8.112;2023-01-23T14:52:05;6.23;;;5.63;;
69906;SDS011;57190;47.918;8.112;2023-01-23T14:54:32;6.73;;;5.97;;
69906;SDS011;57190;47.918;8.112;2023-01-23T14:57:02;6.43;;;5.83;;
69906;SDS011;57190;47.918;8.112;2023-01-23T14:59:33;6.20;;;5.60;;
69906;SDS011;57190;47.918;8.112;2023-01-23T15:02:02;6.77;;;6.13;;
69906;SDS011;57190;47.918;8.112;2023-01-23T15:07:52;6.27;;;5.70;;
69906;SDS011;57190;47.918;8.112;2023-01-23T15:10:22;6.47;;;5.87;;
69906;SDS011;57190;47.918;8.112;2023-01-23T15:12:58;7.67;;;6.90;;
69906;SDS011;57190;47.918;8.112;2023-01-23T15:15:27;7.23;;;5.83;;
69906;SDS011;57190;47.918;8.112;2023-01-23T15:17:55;6.37;;;5.73;;
69906;SDS011;57190;47.918;8.112;2023-01-23T15:20:35;7.97;;;6.20;;
69906;SDS011;57190;47.918;8.112;2023-01-23T15:23:20;6.97;;;6.27;;
69906;SDS011;57190;47.918;8.112;2023-01-23T15:32:01;6.47;;;5.87;;
69906;SDS011;57190;47.918;8.112;2023-01-23T15:36:44;7.20;;;6.27;;
69906;SDS011;57190;47.918;8.112;2023-01-23T15:39:14;7.97;;;7.17;;
69906;SDS011;57190;47.918;8.112;2023-01-23T15:44:36;9.13;;;7.57;;
69906;SDS011;57190;47.918;8.112;2023-01-23T15:47:02;8.17;;;7.37;;
69906;SDS011;57190;47.918;8.112;2023-01-23T15:49:29;7.40;;;6.70;;
69906;SDS011;57190;47.918;8.112;2023-01-23T15:51:56;7.70;;;6.90;;
69906;SDS011;57190;47.918;8.112;2023-01-23T15:54:31;6.80;;;6.20;;
69906;SDS011;57190;47.918;8.112;2023-01-23T15:56:58;6.70;;;6.10;;
69906;SDS011;57190;47.918;8.112;2023-01-23T15:59:25;7.27;;;6.53;;
69906;SDS011;57190;47.918;8.112;2023-01-23T16:01:51;7.20;;;6.50;;
69906;SDS011;57190;47.918;8.112;2023-01-23T16:04:17;6.63;;;6.03;;
69906;SDS011;57190;47.918;8.112;2023-01-23T16:06:43;7.53;;;6.73;;
69906;SDS011;57190;47.918;8.112;2023-01-23T16:09:14;7.57;;;6.70;;
69906;SDS011;57190;47.918;8.112;2023-01-23T16:11:45;6.93;;;6.33;;
69906;SDS011;57190;47.918;8.112;2023-01-23T16:14:13;7.33;;;6.60;;
69906;SDS011;57190;47.918;8.112;2023-01-23T16:16:40;8.30;;;6.63;;
69906;SDS011;57190;47.918;8.112;2023-01-23T16:19:06;7.00;;;6.30;;
69906;SDS011;57190;47.918;8.112;2023-01-23T16:21:32;7.07;;;6.37;;
69906;SDS011;57190;47.918;8.112;2023-01-23T16:23:57;6.63;;;5.93;;
69906;SDS011;57190;47.918;8.112;2023-01-23T16:26:23;7.37;;;5.90;;
69906;SDS011;57190;47.918;8.112;2023-01-23T16:28:51;6.93;;;6.33;;
69906;SDS011;57190;47.918;8.112;2023-01-23T16:31:17;5.93;;;5.43;;
69906;SDS011;57190;47.918;8.112;2023-01-23T16:33:44;6.83;;;6.23;;
69906;SDS011;57190;47.918;8.112;2023-01-23T16:36:13;6.80;;;6.20;;
69906;SDS011;57190;47.918;8.112;2023-01-23T16:38:42;6.97;;;6.30;;
69906;SDS011;57190;47.918;8.112;2023-01-23T16:41:14;6.63;;;5.93;;
69906;SDS011;57190;47.918;8.112;2023-01-23T16:43:40;7.17;;;6.40;;